sensor_id;sensor_type;location;lat;lon;timestamp;P1;durP1;ratioP1;P2;durP2;ratioP2
54805;SDS011;62866;55.776;37.496;2024-01-30T00:01:15;6.15;;;2.63;;
54805;SDS011;62866;55.776;37.496;2024-01-30T00:03:40;5.93;;;2.38;;
54805;SDS011;62866;55.776;37.496;2024-01-30T00:06:06;8.63;;;3.13;;
54805;SDS011;62866;55.776;37.496;2024-01-30T00:08:33;8.95;;;3.50;;
54805;SDS011;62866;55.776;37.496;2024-01-30T00:10:58;4.30;;;2.20;;
54805;SDS011;62866;55.776;37.496;2024-01-30T00:13:24;9.45;;;2.97;;
54805;SDS011;62866;55.776;37.496;2024-01-30T00:15:49;8.00;;;3.67;;
54805;SDS011;62866;55.776;37.496;2024-01-30T00:18:15;4.38;;;2.15;;
54805;SDS011;62866;55.776;37.496;2024-01-30T00:20:41;5.32;;;2.55;;
54805;SDS011;62866;55.776;37.496;2024-01-30T00:23:07;6.38;;;2.70;;
54805;SDS011;62866;55.776;37.496;2024-01-30T00:25:33;7.88;;;2.97;;
54805;SDS011;62866;55.776;37.496;2024-01-30T00:27:59;4.15;;;2.13;;
54805;SDS011;62866;55.776;37.496;2024-01-30T00:30:25;5.90;;;2.78;;
54805;SDS011;62866;55.776;37.496;2024-01-30T00:32:50;7.82;;;3.25;;
54805;SDS011;62866;55.776;37.496;2024-01-30T00:35:16;5.70;;;2.53;;
54805;SDS011;62866;55.776;37.496;2024-01-30T00:37:41;8.05;;;3.60;;
54805;SDS011;62866;55.776;37.496;2024-01-30T00:40:07;6.05;;;2.60;;
54805;SDS011;62866;55.776;37.496;2024-01-30T00:42:35;2.80;;;1.33;;
54805;SDS011;62866;55.776;37.496;2024-01-30T00:45:01;8.18;;;3.58;;
54805;SDS011;62866;55.776;37.496;2024-01-30T00:47:27;2.38;;;1.27;;
54805;SDS011;62866;55.776;37.496;2024-01-30T00:49:54;6.35;;;3.25;;
54805;SDS011;62866;55.776;37.496;2024-01-30T00:52:19;6.43;;;2.83;;
54805;SDS011;62866;55.776;37.496;2024-01-30T00:54:45;4.55;;;2.47;;
54805;SDS011;62866;55.776;37.496;2024-01-30T00:57:10;7.00;;;3.03;;
54805;SDS011;62866;55.776;37.496;2024-01-30T00:59:36;7.25;;;2.88;;
54805;SDS011;62866;55.776;37.496;2024-01-30T01:02:01;9.77;;;3.30;;
54805;SDS011;62866;55.776;37.496;2024-01-30T01:04:27;6.63;;;2.63;;
54805;SDS011;62866;55.776;37.496;2024-01-30T01:06:53;5.68;;;3.17;;
54805;SDS011;62866;55.776;37.496;2024-01-30T01:09:18;5.80;;;2.83;;
54805;SDS011;62866;55.776;37.496;2024-01-30T01:11:44;5.30;;;2.15;;
54805;SDS011;62866;55.776;37.496;2024-01-30T01:14:09;7.20;;;3.78;;
54805;SDS011;62866;55.776;37.496;2024-01-30T01:16:35;6.78;;;3.22;;
54805;SDS011;62866;55.776;37.496;2024-01-30T01:19:01;5.70;;;2.22;;
54805;SDS011;62866;55.776;37.496;2024-01-30T01:21:26;4.43;;;2.33;;
54805;SDS011;62866;55.776;37.496;2024-01-30T01:23:52;4.22;;;2.30;;
54805;SDS011;62866;55.776;37.496;2024-01-30T01:26:17;4.85;;;2.78;;
54805;SDS011;62866;55.776;37.496;2024-01-30T01:28:43;7.47;;;3.53;;
54805;SDS011;62866;55.776;37.496;2024-01-30T01:31:08;7.10;;;3.80;;
54805;SDS011;62866;55.776;37.496;2024-01-30T01:33:34;5.60;;;2.83;;
54805;SDS011;62866;55.776;37.496;2024-01-30T01:36:02;6.53;;;3.40;;
54805;SDS011;62866;55.776;37.496;2024-01-30T01:38:28;3.33;;;1.67;;
54805;SDS011;62866;55.776;37.496;2024-01-30T01:40:54;4.15;;;2.13;;
54805;SDS011;62866;55.776;37.496;2024-01-30T01:43:19;7.40;;;2.78;;
54805;SDS011;62866;55.776;37.496;2024-01-30T01:45:45;6.18;;;3.05;;
54805;SDS011;62866;55.776;37.496;2024-01-30T01:48:10;5.80;;;3.08;;
54805;SDS011;62866;55.776;37.496;2024-01-30T01:50:37;10.15;;;2.95;;
54805;SDS011;62866;55.776;37.496;2024-01-30T01:53:03;6.00;;;3.33;;
54805;SDS011;62866;55.776;37.496;2024-01-30T01:55:33;5.80;;;2.83;;
54805;SDS011;62866;55.776;37.496;2024-01-30T01:58:00;3.92;;;1.75;;
54805;SDS011;62866;55.776;37.496;2024-01-30T02:00:27;5.65;;;3.00;;
54805;SDS011;62866;55.776;37.496;2024-01-30T02:02:54;7.00;;;2.90;;
54805;SDS011;62866;55.776;37.496;2024-01-30T02:05:21;6.22;;;2.88;;
54805;SDS011;62866;55.776;37.496;2024-01-30T02:07:46;7.93;;;3.35;;
54805;SDS011;62866;55.776;37.496;2024-01-30T02:10:12;5.03;;;2.75;;
54805;SDS011;62866;55.776;37.496;2024-01-30T02:12:38;8.13;;;3.20;;
54805;SDS011;62866;55.776;37.496;2024-01-30T02:15:03;9.48;;;3.70;;
54805;SDS011;62866;55.776;37.496;2024-01-30T02:17:30;5.63;;;3.30;;
54805;SDS011;62866;55.776;37.496;2024-01-30T02:19:56;8.15;;;3.67;;
54805;SDS011;62866;55.776;37.496;2024-01-30T02:22:22;8.02;;;3.42;;
54805;SDS011;62866;55.776;37.496;2024-01-30T02:24:48;7.65;;;2.95;;
54805;SDS011;62866;55.776;37.496;2024-01-30T02:27:14;5.97;;;3.08;;
54805;SDS011;62866;55.776;37.496;2024-01-30T02:29:40;5.50;;;2.60;;
54805;SDS011;62866;55.776;37.496;2024-01-30T02:32:06;6.35;;;3.13;;
54805;SDS011;62866;55.776;37.496;2024-01-30T02:34:32;6.90;;;3.15;;
54805;SDS011;62866;55.776;37.496;2024-01-30T02:36:58;10.88;;;3.38;;
54805;SDS011;62866;55.776;37.496;2024-01-30T02:39:24;9.30;;;3.05;;
54805;SDS011;62866;55.776;37.496;2024-01-30T02:41:50;9.70;;;3.72;;
54805;SDS011;62866;55.776;37.496;2024-01-30T02:44:15;6.45;;;2.30;;
54805;SDS011;62866;55.776;37.496;2024-01-30T02:46:41;9.48;;;3.70;;
54805;SDS011;62866;55.776;37.496;2024-01-30T02:49:07;8.50;;;3.00;;
54805;SDS011;62866;55.776;37.496;2024-01-30T02:51:32;9.68;;;3.75;;
54805;SDS011;62866;55.776;37.496;2024-01-30T02:53:58;6.75;;;3.08;;
54805;SDS011;62866;55.776;37.496;2024-01-30T02:56:23;6.97;;;3.28;;
54805;SDS011;62866;55.776;37.496;2024-01-30T02:58:49;9.43;;;3.70;;
54805;SDS011;62866;55.776;37.496;2024-01-30T03:01:14;6.50;;;3.17;;
54805;SDS011;62866;55.776;37.496;2024-01-30T03:03:40;7.22;;;3.25;;
54805;SDS011;62866;55.776;37.496;2024-01-30T03:06:06;6.13;;;3.33;;
54805;SDS011;62866;55.776;37.496;2024-01-30T03:08:32;8.73;;;3.58;;
54805;SDS011;62866;55.776;37.496;2024-01-30T03:10:59;8.57;;;3.30;;
54805;SDS011;62866;55.776;37.496;2024-01-30T03:13:25;8.32;;;3.40;;
54805;SDS011;62866;55.776;37.496;2024-01-30T03:15:51;8.60;;;3.63;;
54805;SDS011;62866;55.776;37.496;2024-01-30T03:18:17;6.50;;;2.13;;
54805;SDS011;62866;55.776;37.496;2024-01-30T03:20:43;6.47;;;2.90;;
54805;SDS011;62866;55.776;37.496;2024-01-30T03:23:08;7.50;;;2.80;;
54805;SDS011;62866;55.776;37.496;2024-01-30T03:25:34;8.48;;;3.47;;
54805;SDS011;62866;55.776;37.496;2024-01-30T03:27:59;8.00;;;3.47;;
54805;SDS011;62866;55.776;37.496;2024-01-30T03:30:25;7.03;;;3.58;;
54805;SDS011;62866;55.776;37.496;2024-01-30T03:32:50;8.90;;;3.08;;
54805;SDS011;62866;55.776;37.496;2024-01-30T03:35:16;7.07;;;2.70;;
54805;SDS011;62866;55.776;37.496;2024-01-30T03:37:41;7.65;;;3.67;;
54805;SDS011;62866;55.776;37.496;2024-01-30T03:40:07;8.48;;;3.45;;
54805;SDS011;62866;55.776;37.496;2024-01-30T03:42:33;5.82;;;2.33;;
54805;SDS011;62866;55.776;37.496;2024-01-30T03:44:58;7.95;;;3.42;;
54805;SDS011;62866;55.776;37.496;2024-01-30T03:47:24;6.65;;;3.47;;
54805;SDS011;62866;55.776;37.496;2024-01-30T03:49:49;8.30;;;3.00;;
54805;SDS011;62866;55.776;37.496;2024-01-30T03:52:15;5.55;;;2.65;;
54805;SDS011;62866;55.776;37.496;2024-01-30T03:54:40;8.65;;;3.58;;
54805;SDS011;62866;55.776;37.496;2024-01-30T03:57:06;7.85;;;3.22;;
54805;SDS011;62866;55.776;37.496;2024-01-30T03:59:31;6.80;;;3.22;;
54805;SDS011;62866;55.776;37.496;2024-01-30T04:01:57;6.55;;;2.38;;
54805;SDS011;62866;55.776;37.496;2024-01-30T04:04:23;7.13;;;3.20;;
54805;SDS011;62866;55.776;37.496;2024-01-30T04:06:48;7.57;;;3.85;;
54805;SDS011;62866;55.776;37.496;2024-01-30T04:09:14;5.38;;;2.80;;
54805;SDS011;62866;55.776;37.496;2024-01-30T04:11:40;4.95;;;2.20;;
54805;SDS011;62866;55.776;37.496;2024-01-30T04:14:06;8.60;;;4.07;;
54805;SDS011;62866;55.776;37.496;2024-01-30T04:16:32;8.00;;;3.78;;
54805;SDS011;62866;55.776;37.496;2024-01-30T04:18:58;6.05;;;3.08;;
54805;SDS011;62866;55.776;37.496;2024-01-30T04:21:23;6.00;;;3.28;;
54805;SDS011;62866;55.776;37.496;2024-01-30T04:23:50;6.60;;;2.85;;
54805;SDS011;62866;55.776;37.496;2024-01-30T04:26:16;4.38;;;1.98;;
54805;SDS011;62866;55.776;37.496;2024-01-30T04:28:42;7.65;;;3.50;;
54805;SDS011;62866;55.776;37.496;2024-01-30T04:31:09;7.53;;;3.05;;
54805;SDS011;62866;55.776;37.496;2024-01-30T04:33:35;5.97;;;2.97;;
54805;SDS011;62866;55.776;37.496;2024-01-30T04:36:01;9.80;;;3.67;;
54805;SDS011;62866;55.776;37.496;2024-01-30T04:38:26;7.20;;;3.78;;
54805;SDS011;62866;55.776;37.496;2024-01-30T04:40:52;4.57;;;1.80;;
54805;SDS011;62866;55.776;37.496;2024-01-30T04:43:17;7.07;;;2.60;;
54805;SDS011;62866;55.776;37.496;2024-01-30T04:45:44;5.10;;;2.80;;
54805;SDS011;62866;55.776;37.496;2024-01-30T04:48:09;6.82;;;3.33;;
54805;SDS011;62866;55.776;37.496;2024-01-30T04:50:35;9.30;;;3.72;;
54805;SDS011;62866;55.776;37.496;2024-01-30T04:53:01;7.03;;;3.28;;
54805;SDS011;62866;55.776;37.496;2024-01-30T04:55:26;7.53;;;3.70;;
54805;SDS011;62866;55.776;37.496;2024-01-30T04:57:52;8.80;;;4.30;;
54805;SDS011;62866;55.776;37.496;2024-01-30T05:00:18;4.00;;;2.13;;
54805;SDS011;62866;55.776;37.496;2024-01-30T05:02:43;5.78;;;2.70;;
54805;SDS011;62866;55.776;37.496;2024-01-30T05:05:09;9.77;;;3.75;;
54805;SDS011;62866;55.776;37.496;2024-01-30T05:07:34;8.32;;;3.85;;
54805;SDS011;62866;55.776;37.496;2024-01-30T05:10:00;3.13;;;1.88;;
54805;SDS011;62866;55.776;37.496;2024-01-30T05:12:26;8.93;;;3.47;;
54805;SDS011;62866;55.776;37.496;2024-01-30T05:14:51;6.13;;;3.13;;
54805;SDS011;62866;55.776;37.496;2024-01-30T05:17:17;7.70;;;3.80;;
54805;SDS011;62866;55.776;37.496;2024-01-30T05:19:43;7.10;;;3.67;;
54805;SDS011;62866;55.776;37.496;2024-01-30T05:22:09;7.63;;;3.95;;
54805;SDS011;62866;55.776;37.496;2024-01-30T05:24:35;6.78;;;3.70;;
54805;SDS011;62866;55.776;37.496;2024-01-30T05:27:02;9.18;;;4.32;;
54805;SDS011;62866;55.776;37.496;2024-01-30T05:29:27;7.07;;;3.47;;
54805;SDS011;62866;55.776;37.496;2024-01-30T05:31:53;9.98;;;3.47;;
54805;SDS011;62866;55.776;37.496;2024-01-30T05:34:18;8.32;;;3.83;;
54805;SDS011;62866;55.776;37.496;2024-01-30T05:36:44;10.02;;;3.70;;
54805;SDS011;62866;55.776;37.496;2024-01-30T05:39:10;9.25;;;3.60;;
54805;SDS011;62866;55.776;37.496;2024-01-30T05:41:36;7.00;;;2.20;;
54805;SDS011;62866;55.776;37.496;2024-01-30T05:44:01;9.93;;;4.68;;
54805;SDS011;62866;55.776;37.496;2024-01-30T05:46:27;5.63;;;2.67;;
54805;SDS011;62866;55.776;37.496;2024-01-30T05:48:52;8.50;;;4.00;;
54805;SDS011;62866;55.776;37.496;2024-01-30T05:51:18;8.68;;;3.53;;
54805;SDS011;62866;55.776;37.496;2024-01-30T05:53:43;10.27;;;4.18;;
54805;SDS011;62866;55.776;37.496;2024-01-30T05:56:09;5.68;;;3.25;;
54805;SDS011;62866;55.776;37.496;2024-01-30T05:58:35;9.32;;;3.88;;
54805;SDS011;62866;55.776;37.496;2024-01-30T06:01:02;8.82;;;4.10;;
54805;SDS011;62866;55.776;37.496;2024-01-30T06:03:31;10.30;;;4.30;;
54805;SDS011;62866;55.776;37.496;2024-01-30T06:05:57;9.70;;;4.10;;
54805;SDS011;62866;55.776;37.496;2024-01-30T06:08:22;3.65;;;2.13;;
54805;SDS011;62866;55.776;37.496;2024-01-30T06:10:48;8.23;;;4.10;;
54805;SDS011;62866;55.776;37.496;2024-01-30T06:13:14;8.27;;;3.63;;
54805;SDS011;62866;55.776;37.496;2024-01-30T06:15:39;6.93;;;3.08;;
54805;SDS011;62866;55.776;37.496;2024-01-30T06:18:05;10.98;;;3.72;;
54805;SDS011;62866;55.776;37.496;2024-01-30T06:20:30;6.03;;;2.70;;
54805;SDS011;62866;55.776;37.496;2024-01-30T06:22:56;11.10;;;5.10;;
54805;SDS011;62866;55.776;37.496;2024-01-30T06:25:21;10.25;;;3.50;;
54805;SDS011;62866;55.776;37.496;2024-01-30T06:27:47;11.70;;;5.15;;
54805;SDS011;62866;55.776;37.496;2024-01-30T06:30:12;9.50;;;3.67;;
54805;SDS011;62866;55.776;37.496;2024-01-30T06:32:38;6.47;;;3.28;;
54805;SDS011;62866;55.776;37.496;2024-01-30T06:35:04;11.02;;;4.80;;
54805;SDS011;62866;55.776;37.496;2024-01-30T06:37:31;7.28;;;3.67;;
54805;SDS011;62866;55.776;37.496;2024-01-30T06:39:56;10.13;;;3.90;;
54805;SDS011;62866;55.776;37.496;2024-01-30T06:42:22;10.98;;;4.43;;
54805;SDS011;62866;55.776;37.496;2024-01-30T06:44:47;9.50;;;4.13;;
54805;SDS011;62866;55.776;37.496;2024-01-30T06:47:13;10.95;;;4.75;;
54805;SDS011;62866;55.776;37.496;2024-01-30T06:49:38;12.93;;;4.20;;
54805;SDS011;62866;55.776;37.496;2024-01-30T06:52:07;6.80;;;2.90;;
54805;SDS011;62866;55.776;37.496;2024-01-30T06:54:33;8.18;;;3.50;;
54805;SDS011;62866;55.776;37.496;2024-01-30T06:56:59;10.57;;;5.20;;
54805;SDS011;62866;55.776;37.496;2024-01-30T06:59:25;10.52;;;4.78;;
54805;SDS011;62866;55.776;37.496;2024-01-30T07:01:50;11.23;;;4.90;;
54805;SDS011;62866;55.776;37.496;2024-01-30T07:04:16;10.13;;;4.55;;
54805;SDS011;62866;55.776;37.496;2024-01-30T07:06:42;10.88;;;4.80;;
54805;SDS011;62866;55.776;37.496;2024-01-30T07:09:07;11.30;;;5.15;;
54805;SDS011;62866;55.776;37.496;2024-01-30T07:11:36;13.50;;;5.72;;
54805;SDS011;62866;55.776;37.496;2024-01-30T07:14:01;12.35;;;4.57;;
54805;SDS011;62866;55.776;37.496;2024-01-30T07:16:29;13.57;;;5.63;;
54805;SDS011;62866;55.776;37.496;2024-01-30T07:18:55;13.52;;;5.53;;
54805;SDS011;62866;55.776;37.496;2024-01-30T07:21:21;13.20;;;5.55;;
54805;SDS011;62866;55.776;37.496;2024-01-30T07:23:52;14.02;;;5.65;;
54805;SDS011;62866;55.776;37.496;2024-01-30T07:26:18;10.75;;;4.65;;
54805;SDS011;62866;55.776;37.496;2024-01-30T07:28:44;11.23;;;5.07;;
54805;SDS011;62866;55.776;37.496;2024-01-30T07:31:09;7.95;;;4.18;;
54805;SDS011;62866;55.776;37.496;2024-01-30T07:33:35;10.27;;;5.00;;
54805;SDS011;62866;55.776;37.496;2024-01-30T07:36:01;10.40;;;4.68;;
54805;SDS011;62866;55.776;37.496;2024-01-30T07:38:26;12.07;;;5.28;;
54805;SDS011;62866;55.776;37.496;2024-01-30T07:40:52;8.25;;;3.25;;
54805;SDS011;62866;55.776;37.496;2024-01-30T07:43:17;10.63;;;4.05;;
54805;SDS011;62866;55.776;37.496;2024-01-30T07:45:43;14.25;;;4.90;;
54805;SDS011;62866;55.776;37.496;2024-01-30T07:48:08;9.68;;;3.85;;
54805;SDS011;62866;55.776;37.496;2024-01-30T07:50:34;9.20;;;4.45;;
54805;SDS011;62866;55.776;37.496;2024-01-30T07:53:00;10.40;;;4.25;;
54805;SDS011;62866;55.776;37.496;2024-01-30T07:55:26;5.80;;;2.63;;
54805;SDS011;62866;55.776;37.496;2024-01-30T07:57:56;12.77;;;4.72;;
54805;SDS011;62866;55.776;37.496;2024-01-30T08:00:22;15.88;;;5.90;;
54805;SDS011;62866;55.776;37.496;2024-01-30T08:02:47;11.77;;;5.35;;
54805;SDS011;62866;55.776;37.496;2024-01-30T08:05:13;11.50;;;5.45;;
54805;SDS011;62866;55.776;37.496;2024-01-30T08:07:40;13.30;;;5.13;;
54805;SDS011;62866;55.776;37.496;2024-01-30T08:10:07;14.20;;;5.88;;
54805;SDS011;62866;55.776;37.496;2024-01-30T08:12:33;14.02;;;6.10;;
54805;SDS011;62866;55.776;37.496;2024-01-30T08:14:58;8.52;;;3.72;;
54805;SDS011;62866;55.776;37.496;2024-01-30T08:17:24;11.68;;;5.07;;
54805;SDS011;62866;55.776;37.496;2024-01-30T08:19:49;8.95;;;3.58;;
54805;SDS011;62866;55.776;37.496;2024-01-30T08:22:15;9.25;;;4.10;;
54805;SDS011;62866;55.776;37.496;2024-01-30T08:24:40;11.98;;;4.93;;
54805;SDS011;62866;55.776;37.496;2024-01-30T08:27:06;10.15;;;4.95;;
54805;SDS011;62866;55.776;37.496;2024-01-30T08:29:34;9.02;;;4.95;;
54805;SDS011;62866;55.776;37.496;2024-01-30T08:32:00;11.75;;;5.60;;
54805;SDS011;62866;55.776;37.496;2024-01-30T08:34:26;14.10;;;5.15;;
54805;SDS011;62866;55.776;37.496;2024-01-30T08:36:52;9.40;;;4.85;;
54805;SDS011;62866;55.776;37.496;2024-01-30T08:39:18;12.25;;;4.95;;
54805;SDS011;62866;55.776;37.496;2024-01-30T08:41:43;11.27;;;3.67;;
54805;SDS011;62866;55.776;37.496;2024-01-30T08:44:09;16.02;;;5.65;;
54805;SDS011;62866;55.776;37.496;2024-01-30T08:46:36;12.68;;;5.28;;
54805;SDS011;62866;55.776;37.496;2024-01-30T08:49:02;12.38;;;5.25;;
54805;SDS011;62866;55.776;37.496;2024-01-30T08:51:29;11.63;;;5.40;;
54805;SDS011;62866;55.776;37.496;2024-01-30T08:53:54;7.80;;;3.75;;
54805;SDS011;62866;55.776;37.496;2024-01-30T08:56:20;12.85;;;4.50;;
54805;SDS011;62866;55.776;37.496;2024-01-30T08:58:45;10.65;;;5.10;;
54805;SDS011;62866;55.776;37.496;2024-01-30T09:01:11;12.05;;;5.38;;
54805;SDS011;62866;55.776;37.496;2024-01-30T09:03:36;9.57;;;4.75;;
54805;SDS011;62866;55.776;37.496;2024-01-30T09:06:08;13.27;;;5.38;;
54805;SDS011;62866;55.776;37.496;2024-01-30T09:08:34;12.75;;;5.38;;
54805;SDS011;62866;55.776;37.496;2024-01-30T09:10:59;11.93;;;5.32;;
54805;SDS011;62866;55.776;37.496;2024-01-30T09:13:25;10.07;;;4.88;;
54805;SDS011;62866;55.776;37.496;2024-01-30T09:15:50;7.70;;;3.65;;
54805;SDS011;62866;55.776;37.496;2024-01-30T09:18:19;15.20;;;6.00;;
54805;SDS011;62866;55.776;37.496;2024-01-30T09:20:45;16.35;;;5.20;;
54805;SDS011;62866;55.776;37.496;2024-01-30T09:23:13;12.40;;;5.40;;
54805;SDS011;62866;55.776;37.496;2024-01-30T09:25:39;12.82;;;4.35;;
54805;SDS011;62866;55.776;37.496;2024-01-30T09:28:05;11.27;;;3.50;;
54805;SDS011;62866;55.776;37.496;2024-01-30T09:30:30;8.70;;;4.13;;
54805;SDS011;62866;55.776;37.496;2024-01-30T09:32:56;10.63;;;5.03;;
54805;SDS011;62866;55.776;37.496;2024-01-30T09:35:21;8.25;;;3.45;;
54805;SDS011;62866;55.776;37.496;2024-01-30T09:37:47;9.35;;;4.15;;
54805;SDS011;62866;55.776;37.496;2024-01-30T09:40:13;11.18;;;3.92;;
54805;SDS011;62866;55.776;37.496;2024-01-30T09:42:43;14.13;;;5.57;;
54805;SDS011;62866;55.776;37.496;2024-01-30T09:45:13;15.32;;;5.28;;
54805;SDS011;62866;55.776;37.496;2024-01-30T09:47:42;13.02;;;4.50;;
54805;SDS011;62866;55.776;37.496;2024-01-30T09:50:09;11.07;;;4.88;;
54805;SDS011;62866;55.776;37.496;2024-01-30T09:52:35;12.95;;;5.13;;
54805;SDS011;62866;55.776;37.496;2024-01-30T09:55:02;8.80;;;2.90;;
54805;SDS011;62866;55.776;37.496;2024-01-30T09:57:28;10.60;;;4.57;;
54805;SDS011;62866;55.776;37.496;2024-01-30T09:59:54;14.27;;;4.75;;
54805;SDS011;62866;55.776;37.496;2024-01-30T10:02:20;5.90;;;2.50;;
54805;SDS011;62866;55.776;37.496;2024-01-30T10:04:49;12.90;;;5.43;;
54805;SDS011;62866;55.776;37.496;2024-01-30T10:07:16;13.15;;;5.53;;
54805;SDS011;62866;55.776;37.496;2024-01-30T10:09:45;10.18;;;4.30;;
54805;SDS011;62866;55.776;37.496;2024-01-30T10:12:11;13.10;;;5.30;;
54805;SDS011;62866;55.776;37.496;2024-01-30T10:14:40;6.80;;;3.00;;
54805;SDS011;62866;55.776;37.496;2024-01-30T10:17:09;12.60;;;4.80;;
54805;SDS011;62866;55.776;37.496;2024-01-30T10:19:36;6.82;;;3.00;;
54805;SDS011;62866;55.776;37.496;2024-01-30T10:22:05;7.30;;;3.83;;
54805;SDS011;62866;55.776;37.496;2024-01-30T10:24:32;14.35;;;5.75;;
54805;SDS011;62866;55.776;37.496;2024-01-30T10:26:58;11.35;;;5.22;;
54805;SDS011;62866;55.776;37.496;2024-01-30T10:29:24;9.52;;;4.65;;
54805;SDS011;62866;55.776;37.496;2024-01-30T10:31:59;8.90;;;4.38;;
54805;SDS011;62866;55.776;37.496;2024-01-30T10:34:29;13.18;;;4.45;;
54805;SDS011;62866;55.776;37.496;2024-01-30T10:39:45;13.27;;;4.80;;
54805;SDS011;62866;55.776;37.496;2024-01-30T10:42:12;10.13;;;4.55;;
54805;SDS011;62866;55.776;37.496;2024-01-30T10:44:43;11.10;;;4.88;;
54805;SDS011;62866;55.776;37.496;2024-01-30T10:47:20;13.85;;;5.18;;
54805;SDS011;62866;55.776;37.496;2024-01-30T10:49:49;12.20;;;5.22;;
54805;SDS011;62866;55.776;37.496;2024-01-30T10:52:17;12.63;;;4.97;;
54805;SDS011;62866;55.776;37.496;2024-01-30T10:54:44;8.90;;;4.07;;
54805;SDS011;62866;55.776;37.496;2024-01-30T10:57:10;14.43;;;4.65;;
54805;SDS011;62866;55.776;37.496;2024-01-30T10:59:37;15.43;;;4.80;;
54805;SDS011;62866;55.776;37.496;2024-01-30T11:02:04;13.38;;;5.18;;
54805;SDS011;62866;55.776;37.496;2024-01-30T11:04:37;12.13;;;4.95;;
54805;SDS011;62866;55.776;37.496;2024-01-30T11:07:24;10.82;;;5.20;;
54805;SDS011;62866;55.776;37.496;2024-01-30T11:09:52;10.30;;;4.30;;
54805;SDS011;62866;55.776;37.496;2024-01-30T11:15:04;7.50;;;3.67;;
54805;SDS011;62866;55.776;37.496;2024-01-30T11:17:42;11.70;;;4.93;;
54805;SDS011;62866;55.776;37.496;2024-01-30T11:20:14;16.05;;;5.40;;
54805;SDS011;62866;55.776;37.496;2024-01-30T11:23:01;13.70;;;5.07;;
54805;SDS011;62866;55.776;37.496;2024-01-30T11:25:31;12.45;;;4.63;;
54805;SDS011;62866;55.776;37.496;2024-01-30T11:27:57;12.43;;;5.47;;
54805;SDS011;62866;55.776;37.496;2024-01-30T11:30:29;11.95;;;5.35;;
54805;SDS011;62866;55.776;37.496;2024-01-30T11:33:00;10.75;;;4.45;;
54805;SDS011;62866;55.776;37.496;2024-01-30T11:35:37;13.73;;;5.40;;
54805;SDS011;62866;55.776;37.496;2024-01-30T11:38:05;12.80;;;4.93;;
54805;SDS011;62866;55.776;37.496;2024-01-30T11:40:31;9.43;;;4.20;;
54805;SDS011;62866;55.776;37.496;2024-01-30T11:42:59;9.82;;;4.55;;
54805;SDS011;62866;55.776;37.496;2024-01-30T11:45:26;11.65;;;5.25;;
54805;SDS011;62866;55.776;37.496;2024-01-30T11:47:52;13.40;;;4.95;;
54805;SDS011;62866;55.776;37.496;2024-01-30T11:50:18;13.18;;;5.65;;
54805;SDS011;62866;55.776;37.496;2024-01-30T11:52:44;17.02;;;5.15;;
54805;SDS011;62866;55.776;37.496;2024-01-30T11:55:10;10.35;;;4.50;;
54805;SDS011;62866;55.776;37.496;2024-01-30T11:57:35;12.27;;;4.78;;
54805;SDS011;62866;55.776;37.496;2024-01-30T12:00:04;6.60;;;3.03;;
54805;SDS011;62866;55.776;37.496;2024-01-30T12:02:38;10.87;;;5.10;;
54805;SDS011;62866;55.776;37.496;2024-01-30T12:05:08;8.85;;;4.35;;
54805;SDS011;62866;55.776;37.496;2024-01-30T12:07:34;11.45;;;5.13;;
54805;SDS011;62866;55.776;37.496;2024-01-30T12:10:00;12.45;;;4.72;;
54805;SDS011;62866;55.776;37.496;2024-01-30T12:12:26;12.30;;;5.25;;
54805;SDS011;62866;55.776;37.496;2024-01-30T12:14:53;7.63;;;4.07;;
54805;SDS011;62866;55.776;37.496;2024-01-30T12:17:31;12.98;;;4.97;;
54805;SDS011;62866;55.776;37.496;2024-01-30T12:20:05;13.48;;;4.43;;
54805;SDS011;62866;55.776;37.496;2024-01-30T12:22:45;10.48;;;5.07;;
54805;SDS011;62866;55.776;37.496;2024-01-30T12:25:13;11.55;;;4.70;;
54805;SDS011;62866;55.776;37.496;2024-01-30T12:27:42;8.50;;;4.43;;
54805;SDS011;62866;55.776;37.496;2024-01-30T12:30:09;8.32;;;2.88;;
54805;SDS011;62866;55.776;37.496;2024-01-30T12:32:36;10.27;;;4.63;;
54805;SDS011;62866;55.776;37.496;2024-01-30T12:35:07;9.18;;;4.65;;
54805;SDS011;62866;55.776;37.496;2024-01-30T12:37:35;11.60;;;4.53;;
54805;SDS011;62866;55.776;37.496;2024-01-30T12:40:01;14.73;;;5.47;;
54805;SDS011;62866;55.776;37.496;2024-01-30T12:42:27;12.45;;;5.47;;
54805;SDS011;62866;55.776;37.496;2024-01-30T12:44:52;11.27;;;4.97;;
54805;SDS011;62866;55.776;37.496;2024-01-30T12:47:18;12.63;;;5.00;;
54805;SDS011;62866;55.776;37.496;2024-01-30T12:49:46;14.13;;;5.80;;
54805;SDS011;62866;55.776;37.496;2024-01-30T12:52:11;11.13;;;5.03;;
54805;SDS011;62866;55.776;37.496;2024-01-30T12:54:39;14.57;;;4.80;;
54805;SDS011;62866;55.776;37.496;2024-01-30T12:57:05;14.63;;;4.68;;
54805;SDS011;62866;55.776;37.496;2024-01-30T12:59:31;12.65;;;5.82;;
54805;SDS011;62866;55.776;37.496;2024-01-30T13:01:56;9.57;;;4.15;;
54805;SDS011;62866;55.776;37.496;2024-01-30T13:04:23;15.05;;;4.68;;
54805;SDS011;62866;55.776;37.496;2024-01-30T13:06:49;13.05;;;5.50;;
54805;SDS011;62866;55.776;37.496;2024-01-30T13:09:15;10.63;;;4.40;;
54805;SDS011;62866;55.776;37.496;2024-01-30T13:11:40;14.95;;;4.13;;
54805;SDS011;62866;55.776;37.496;2024-01-30T13:14:06;9.20;;;4.43;;
54805;SDS011;62866;55.776;37.496;2024-01-30T13:16:32;12.75;;;5.30;;
54805;SDS011;62866;55.776;37.496;2024-01-30T13:22:19;14.55;;;5.50;;
54805;SDS011;62866;55.776;37.496;2024-01-30T13:24:46;5.28;;;3.10;;
54805;SDS011;62866;55.776;37.496;2024-01-30T13:27:12;16.77;;;5.20;;
54805;SDS011;62866;55.776;37.496;2024-01-30T13:29:38;14.07;;;4.93;;
54805;SDS011;62866;55.776;37.496;2024-01-30T13:32:03;10.63;;;4.93;;
54805;SDS011;62866;55.776;37.496;2024-01-30T13:34:29;12.82;;;6.30;;
54805;SDS011;62866;55.776;37.496;2024-01-30T13:36:54;14.48;;;4.97;;
54805;SDS011;62866;55.776;37.496;2024-01-30T13:39:20;16.70;;;5.80;;
54805;SDS011;62866;55.776;37.496;2024-01-30T13:41:45;16.65;;;5.20;;
54805;SDS011;62866;55.776;37.496;2024-01-30T13:44:11;11.73;;;5.15;;
54805;SDS011;62866;55.776;37.496;2024-01-30T13:46:36;12.88;;;4.95;;
54805;SDS011;62866;55.776;37.496;2024-01-30T13:49:04;12.55;;;5.10;;
54805;SDS011;62866;55.776;37.496;2024-01-30T13:51:29;13.52;;;5.18;;
54805;SDS011;62866;55.776;37.496;2024-01-30T13:53:55;16.48;;;5.25;;
54805;SDS011;62866;55.776;37.496;2024-01-30T13:56:20;14.00;;;4.50;;
54805;SDS011;62866;55.776;37.496;2024-01-30T13:58:47;17.27;;;5.53;;
54805;SDS011;62866;55.776;37.496;2024-01-30T14:01:14;12.13;;;5.60;;
54805;SDS011;62866;55.776;37.496;2024-01-30T14:03:39;16.75;;;5.65;;
54805;SDS011;62866;55.776;37.496;2024-01-30T14:06:05;14.43;;;6.13;;
54805;SDS011;62866;55.776;37.496;2024-01-30T14:08:31;11.95;;;5.03;;
54805;SDS011;62866;55.776;37.496;2024-01-30T14:10:57;16.60;;;6.28;;
54805;SDS011;62866;55.776;37.496;2024-01-30T14:13:23;11.50;;;5.60;;
54805;SDS011;62866;55.776;37.496;2024-01-30T14:15:50;14.93;;;5.47;;
54805;SDS011;62866;55.776;37.496;2024-01-30T14:18:16;13.23;;;5.80;;
54805;SDS011;62866;55.776;37.496;2024-01-30T14:20:42;11.63;;;4.82;;
54805;SDS011;62866;55.776;37.496;2024-01-30T14:23:07;8.07;;;3.60;;
54805;SDS011;62866;55.776;37.496;2024-01-30T14:25:32;12.90;;;5.18;;
54805;SDS011;62866;55.776;37.496;2024-01-30T14:27:58;13.98;;;5.15;;
54805;SDS011;62866;55.776;37.496;2024-01-30T14:30:23;11.43;;;4.63;;
54805;SDS011;62866;55.776;37.496;2024-01-30T14:32:49;14.95;;;5.47;;